Terminal Aerodrome Forecast
Issued by NWS

Home | Current Version | Previous Version | Graphics & Text | Print | Product List | Glossary On
Versions: 1 2 3 4 5 6 7 8 9 10 11 12 13 14 15 16 17 18 19 20 21 22 23 24 25
663
FTUS43 KBIS 041110 RRA
TAFJMS
TAF
KJMS 041110Z 0411/0506 19009KT P6SM BKN030
     FM041900 27011KT P6SM SCT025
     FM050500 19007KT P6SM BKN120=

USA.gov is the U.S. government's official web portal to all federal, state and local government web resources and services.